sensor_id;sensor_type;location;lat;lon;timestamp;pressure;altitude;pressure_sealevel;temperature;humidity
4469;BME280;2247;42.666;23.292;2024-03-22T00:00:39;94405.03;;;13.78;33.90
4469;BME280;2247;42.666;23.292;2024-03-22T00:03:06;94408.28;;;13.75;34.17
4469;BME280;2247;42.666;23.292;2024-03-22T00:05:32;94406.47;;;13.71;33.62
4469;BME280;2247;42.666;23.292;2024-03-22T00:07:59;94408.66;;;13.69;33.88
4469;BME280;2247;42.666;23.292;2024-03-22T00:10:26;94408.50;;;13.60;34.08
4469;BME280;2247;42.666;23.292;2024-03-22T00:12:53;94408.00;;;13.58;34.22
4469;BME280;2247;42.666;23.292;2024-03-22T00:15:21;94408.09;;;13.53;33.83
4469;BME280;2247;42.666;23.292;2024-03-22T00:17:47;94408.94;;;13.49;34.13
4469;BME280;2247;42.666;23.292;2024-03-22T00:20:13;94396.56;;;13.44;33.88
4469;BME280;2247;42.666;23.292;2024-03-22T00:22:40;94400.09;;;13.39;34.29
4469;BME280;2247;42.666;23.292;2024-03-22T00:25:07;94399.22;;;13.44;34.30
4469;BME280;2247;42.666;23.292;2024-03-22T00:27:34;94401.84;;;13.44;34.46
4469;BME280;2247;42.666;23.292;2024-03-22T00:30:00;94395.88;;;13.38;34.56
4469;BME280;2247;42.666;23.292;2024-03-22T00:32:29;94402.03;;;13.34;34.58
4469;BME280;2247;42.666;23.292;2024-03-22T00:34:54;94403.09;;;13.33;35.17
4469;BME280;2247;42.666;23.292;2024-03-22T00:37:21;94396.72;;;13.34;35.44
4469;BME280;2247;42.666;23.292;2024-03-22T00:39:47;94409.38;;;13.37;34.69
4469;BME280;2247;42.666;23.292;2024-03-22T00:42:14;94405.94;;;13.36;35.16
4469;BME280;2247;42.666;23.292;2024-03-22T00:44:40;94409.97;;;13.34;35.19
4469;BME280;2247;42.666;23.292;2024-03-22T00:47:07;94408.94;;;13.30;35.33
4469;BME280;2247;42.666;23.292;2024-03-22T00:49:34;94412.19;;;13.27;35.32
4469;BME280;2247;42.666;23.292;2024-03-22T00:52:02;94411.69;;;13.25;35.52
4469;BME280;2247;42.666;23.292;2024-03-22T00:54:28;94414.88;;;13.22;35.71
4469;BME280;2247;42.666;23.292;2024-03-22T00:56:55;94407.03;;;13.17;35.50
4469;BME280;2247;42.666;23.292;2024-03-22T00:59:21;94391.66;;;13.19;35.62
4469;BME280;2247;42.666;23.292;2024-03-22T01:01:48;94404.88;;;13.19;35.33
4469;BME280;2247;42.666;23.292;2024-03-22T01:04:14;94403.50;;;13.21;35.76
4469;BME280;2247;42.666;23.292;2024-03-22T01:06:43;94401.72;;;13.17;35.69
4469;BME280;2247;42.666;23.292;2024-03-22T01:09:08;94408.13;;;13.11;35.74
4469;BME280;2247;42.666;23.292;2024-03-22T01:11:36;94405.78;;;13.09;35.85
4469;BME280;2247;42.666;23.292;2024-03-22T01:14:02;94362.31;;;12.78;35.51
4469;BME280;2247;42.666;23.292;2024-03-22T01:16:29;94411.22;;;12.99;36.32
4469;BME280;2247;42.666;23.292;2024-03-22T01:18:55;94411.34;;;13.08;35.79
4469;BME280;2247;42.666;23.292;2024-03-22T01:21:22;94421.72;;;13.04;36.31
4469;BME280;2247;42.666;23.292;2024-03-22T01:23:52;94407.78;;;12.98;36.78
4469;BME280;2247;42.666;23.292;2024-03-22T01:26:18;94403.41;;;12.89;36.64
4469;BME280;2247;42.666;23.292;2024-03-22T01:28:44;94411.59;;;12.87;35.91
4469;BME280;2247;42.666;23.292;2024-03-22T01:31:11;94411.13;;;12.85;36.18
4469;BME280;2247;42.666;23.292;2024-03-22T01:33:37;94406.31;;;12.87;36.14
4469;BME280;2247;42.666;23.292;2024-03-22T01:36:05;94407.25;;;12.78;36.56
4469;BME280;2247;42.666;23.292;2024-03-22T01:38:31;94407.00;;;12.74;36.42
4469;BME280;2247;42.666;23.292;2024-03-22T01:41:00;94402.31;;;12.71;36.08
4469;BME280;2247;42.666;23.292;2024-03-22T01:43:26;94410.78;;;12.68;36.27
4469;BME280;2247;42.666;23.292;2024-03-22T01:45:53;94401.34;;;12.62;36.38
4469;BME280;2247;42.666;23.292;2024-03-22T01:48:19;94398.97;;;12.60;36.71
4469;BME280;2247;42.666;23.292;2024-03-22T01:50:46;94398.25;;;12.55;36.78
4469;BME280;2247;42.666;23.292;2024-03-22T01:53:12;94402.81;;;12.49;36.54
4469;BME280;2247;42.666;23.292;2024-03-22T01:55:39;94399.66;;;12.47;36.68
4469;BME280;2247;42.666;23.292;2024-03-22T01:58:07;94409.69;;;12.50;35.61
4469;BME280;2247;42.666;23.292;2024-03-22T02:00:35;94384.59;;;12.48;36.50
4469;BME280;2247;42.666;23.292;2024-03-22T02:03:01;94404.44;;;12.45;36.78
4469;BME280;2247;42.666;23.292;2024-03-22T02:05:28;94400.25;;;12.44;37.07
4469;BME280;2247;42.666;23.292;2024-03-22T02:07:54;94404.78;;;12.39;36.68
4469;BME280;2247;42.666;23.292;2024-03-22T02:10:21;94408.00;;;12.36;37.25
4469;BME280;2247;42.666;23.292;2024-03-22T02:12:47;94403.78;;;12.35;37.20
4469;BME280;2247;42.666;23.292;2024-03-22T02:15:16;94404.78;;;12.39;37.00
4469;BME280;2247;42.666;23.292;2024-03-22T02:17:41;94391.34;;;12.35;37.46
4469;BME280;2247;42.666;23.292;2024-03-22T02:20:09;94395.56;;;12.36;37.01
4469;BME280;2247;42.666;23.292;2024-03-22T02:22:37;94383.31;;;12.21;37.22
4469;BME280;2247;42.666;23.292;2024-03-22T02:25:07;94365.03;;;12.01;37.45
4469;BME280;2247;42.666;23.292;2024-03-22T02:27:33;94401.69;;;12.32;37.24
4469;BME280;2247;42.666;23.292;2024-03-22T02:30:00;94403.25;;;12.33;37.52
4469;BME280;2247;42.666;23.292;2024-03-22T02:32:27;94406.25;;;12.26;37.34
4469;BME280;2247;42.666;23.292;2024-03-22T02:34:54;94412.81;;;12.29;37.26
4469;BME280;2247;42.666;23.292;2024-03-22T02:37:20;94411.53;;;12.26;37.30
4469;BME280;2247;42.666;23.292;2024-03-22T02:39:47;94411.25;;;12.28;37.46
4469;BME280;2247;42.666;23.292;2024-03-22T02:42:14;94420.75;;;12.29;37.68
4469;BME280;2247;42.666;23.292;2024-03-22T02:44:41;94421.22;;;12.36;37.29
4469;BME280;2247;42.666;23.292;2024-03-22T02:47:08;94415.41;;;12.34;37.54
4469;BME280;2247;42.666;23.292;2024-03-22T02:49:35;94417.84;;;12.30;37.64
4469;BME280;2247;42.666;23.292;2024-03-22T02:52:01;94424.53;;;12.22;38.31
4469;BME280;2247;42.666;23.292;2024-03-22T02:54:29;94423.53;;;12.13;38.25
4469;BME280;2247;42.666;23.292;2024-03-22T02:56:54;94428.41;;;12.01;38.17
4469;BME280;2247;42.666;23.292;2024-03-22T02:59:25;94428.97;;;11.98;37.99
4469;BME280;2247;42.666;23.292;2024-03-22T03:01:51;94439.16;;;11.81;38.51
4469;BME280;2247;42.666;23.292;2024-03-22T03:04:18;94442.22;;;11.93;38.61
4469;BME280;2247;42.666;23.292;2024-03-22T03:06:44;94437.91;;;12.02;38.52
4469;BME280;2247;42.666;23.292;2024-03-22T03:09:11;94441.50;;;12.11;38.62
4469;BME280;2247;42.666;23.292;2024-03-22T03:11:38;94445.28;;;12.05;38.32
4469;BME280;2247;42.666;23.292;2024-03-22T03:14:05;94450.66;;;11.95;38.51
4469;BME280;2247;42.666;23.292;2024-03-22T03:16:32;94445.50;;;11.80;39.06
4469;BME280;2247;42.666;23.292;2024-03-22T03:19:00;94452.47;;;11.61;39.55
4469;BME280;2247;42.666;23.292;2024-03-22T03:21:25;94444.41;;;11.47;39.46
4469;BME280;2247;42.666;23.292;2024-03-22T03:23:52;94446.31;;;11.36;39.94
4469;BME280;2247;42.666;23.292;2024-03-22T03:26:18;94454.22;;;11.36;40.08
4469;BME280;2247;42.666;23.292;2024-03-22T03:28:45;94459.50;;;11.36;40.01
4469;BME280;2247;42.666;23.292;2024-03-22T03:31:11;94461.13;;;11.27;39.44
4469;BME280;2247;42.666;23.292;2024-03-22T03:33:39;94470.41;;;11.20;39.62
4469;BME280;2247;42.666;23.292;2024-03-22T03:36:05;94462.50;;;11.15;40.03
4469;BME280;2247;42.666;23.292;2024-03-22T03:38:32;94464.16;;;11.05;40.26
4469;BME280;2247;42.666;23.292;2024-03-22T03:40:58;94461.78;;;11.04;40.25
4469;BME280;2247;42.666;23.292;2024-03-22T03:43:25;94469.97;;;11.02;40.82
4469;BME280;2247;42.666;23.292;2024-03-22T03:45:51;94462.56;;;11.04;40.83
4469;BME280;2247;42.666;23.292;2024-03-22T03:48:19;94467.56;;;11.11;40.76
4469;BME280;2247;42.666;23.292;2024-03-22T03:50:52;94472.56;;;11.13;40.54
4469;BME280;2247;42.666;23.292;2024-03-22T03:53:20;94470.22;;;11.06;40.50
4469;BME280;2247;42.666;23.292;2024-03-22T03:55:46;94490.56;;;10.95;40.62
4469;BME280;2247;42.666;23.292;2024-03-22T03:58:13;94485.06;;;10.92;40.67
4469;BME280;2247;42.666;23.292;2024-03-22T04:00:39;94489.31;;;10.78;41.26
4469;BME280;2247;42.666;23.292;2024-03-22T04:03:06;94488.28;;;10.69;41.15
4469;BME280;2247;42.666;23.292;2024-03-22T04:05:32;94492.75;;;10.68;41.03
4469;BME280;2247;42.666;23.292;2024-03-22T04:08:00;94486.72;;;10.62;40.47
4469;BME280;2247;42.666;23.292;2024-03-22T04:10:26;94493.31;;;10.60;40.80
4469;BME280;2247;42.666;23.292;2024-03-22T04:12:53;94490.44;;;10.56;40.85
4469;BME280;2247;42.666;23.292;2024-03-22T04:15:18;94499.41;;;10.50;40.38
4469;BME280;2247;42.666;23.292;2024-03-22T04:17:45;94490.97;;;10.48;40.63
4469;BME280;2247;42.666;23.292;2024-03-22T04:20:11;94500.97;;;10.51;41.09
4469;BME280;2247;42.666;23.292;2024-03-22T04:22:38;94494.91;;;10.56;41.11
4469;BME280;2247;42.666;23.292;2024-03-22T04:25:06;94503.84;;;10.60;41.14
4469;BME280;2247;42.666;23.292;2024-03-22T04:27:35;94507.81;;;10.62;41.07
4469;BME280;2247;42.666;23.292;2024-03-22T04:30:05;94495.13;;;10.70;41.11
4469;BME280;2247;42.666;23.292;2024-03-22T04:32:32;94501.97;;;10.76;41.12
4469;BME280;2247;42.666;23.292;2024-03-22T04:34:58;94508.53;;;10.83;41.09
4469;BME280;2247;42.666;23.292;2024-03-22T04:37:25;94507.47;;;10.89;41.02
4469;BME280;2247;42.666;23.292;2024-03-22T04:39:52;94507.44;;;10.94;41.34
4469;BME280;2247;42.666;23.292;2024-03-22T04:42:21;94510.28;;;11.08;40.94
4469;BME280;2247;42.666;23.292;2024-03-22T04:44:48;94507.31;;;11.25;40.37
4469;BME280;2247;42.666;23.292;2024-03-22T04:47:14;94510.66;;;11.35;40.07
4469;BME280;2247;42.666;23.292;2024-03-22T04:49:40;94504.47;;;11.55;39.48
4469;BME280;2247;42.666;23.292;2024-03-22T04:52:07;94512.09;;;11.67;39.13
4469;BME280;2247;42.666;23.292;2024-03-22T04:54:33;94514.19;;;11.75;39.67
4469;BME280;2247;42.666;23.292;2024-03-22T04:57:00;94513.31;;;11.84;39.70
4469;BME280;2247;42.666;23.292;2024-03-22T04:59:27;94515.09;;;11.94;39.42
4469;BME280;2247;42.666;23.292;2024-03-22T05:01:54;94514.97;;;12.09;39.40
4469;BME280;2247;42.666;23.292;2024-03-22T05:04:21;94515.34;;;12.27;38.47
4469;BME280;2247;42.666;23.292;2024-03-22T05:06:47;94510.53;;;12.34;38.64
4469;BME280;2247;42.666;23.292;2024-03-22T05:09:14;94518.53;;;12.52;38.57
4469;BME280;2247;42.666;23.292;2024-03-22T05:11:40;94523.94;;;12.71;38.38
4469;BME280;2247;42.666;23.292;2024-03-22T05:14:07;94522.06;;;12.95;37.53
4469;BME280;2247;42.666;23.292;2024-03-22T05:16:34;94530.69;;;13.30;37.45
4469;BME280;2247;42.666;23.292;2024-03-22T05:19:01;94531.38;;;13.59;36.94
4469;BME280;2247;42.666;23.292;2024-03-22T05:21:27;94517.84;;;13.79;36.44
4469;BME280;2247;42.666;23.292;2024-03-22T05:23:54;94522.97;;;14.08;35.79
4469;BME280;2247;42.666;23.292;2024-03-22T05:26:20;94525.00;;;14.49;35.18
4469;BME280;2247;42.666;23.292;2024-03-22T05:28:47;94542.66;;;14.86;35.37
4469;BME280;2247;42.666;23.292;2024-03-22T05:31:13;94538.94;;;15.14;35.17
4469;BME280;2247;42.666;23.292;2024-03-22T05:33:41;94534.75;;;15.49;34.33
4469;BME280;2247;42.666;23.292;2024-03-22T05:36:07;94519.31;;;15.65;34.10
4469;BME280;2247;42.666;23.292;2024-03-22T05:38:34;94531.28;;;16.12;31.95
4469;BME280;2247;42.666;23.292;2024-03-22T05:41:04;94536.19;;;16.41;31.35
4469;BME280;2247;42.666;23.292;2024-03-22T05:43:31;94532.47;;;16.64;30.89
4469;BME280;2247;42.666;23.292;2024-03-22T05:45:57;94539.00;;;16.89;29.88
4469;BME280;2247;42.666;23.292;2024-03-22T05:48:24;94541.91;;;17.10;29.38
4469;BME280;2247;42.666;23.292;2024-03-22T05:50:51;94547.44;;;17.22;29.93
4469;BME280;2247;42.666;23.292;2024-03-22T05:53:18;94545.59;;;17.31;29.99
4469;BME280;2247;42.666;23.292;2024-03-22T05:55:44;94544.09;;;17.47;29.51
4469;BME280;2247;42.666;23.292;2024-03-22T05:58:11;94540.75;;;17.90;28.85
4469;BME280;2247;42.666;23.292;2024-03-22T06:00:37;94549.84;;;18.06;27.67
4469;BME280;2247;42.666;23.292;2024-03-22T06:03:04;94545.59;;;18.05;28.98
4469;BME280;2247;42.666;23.292;2024-03-22T06:05:30;94551.56;;;18.28;30.94
4469;BME280;2247;42.666;23.292;2024-03-22T06:07:59;94549.22;;;18.43;28.73
4469;BME280;2247;42.666;23.292;2024-03-22T06:10:25;94553.63;;;18.57;28.18
4469;BME280;2247;42.666;23.292;2024-03-22T06:12:52;94551.25;;;18.72;27.70
4469;BME280;2247;42.666;23.292;2024-03-22T06:15:18;94520.63;;;18.53;26.86
4469;BME280;2247;42.666;23.292;2024-03-22T06:17:44;94542.75;;;18.70;27.55
4469;BME280;2247;42.666;23.292;2024-03-22T06:20:11;94550.88;;;18.91;28.19
4469;BME280;2247;42.666;23.292;2024-03-22T06:22:38;94557.41;;;19.11;27.44
4469;BME280;2247;42.666;23.292;2024-03-22T06:25:07;94558.44;;;19.36;27.52
4469;BME280;2247;42.666;23.292;2024-03-22T06:27:34;94550.22;;;19.49;25.83
4469;BME280;2247;42.666;23.292;2024-03-22T06:30:00;94555.94;;;19.69;26.11
4469;BME280;2247;42.666;23.292;2024-03-22T06:32:27;94557.13;;;19.80;25.54
4469;BME280;2247;42.666;23.292;2024-03-22T06:34:53;94548.19;;;19.76;25.56
4469;BME280;2247;42.666;23.292;2024-03-22T06:37:20;94551.50;;;19.73;25.50
4469;BME280;2247;42.666;23.292;2024-03-22T06:39:45;94547.59;;;19.70;24.84
4469;BME280;2247;42.666;23.292;2024-03-22T06:42:14;94556.19;;;19.76;24.77
4469;BME280;2247;42.666;23.292;2024-03-22T06:44:40;94552.66;;;19.63;25.03
4469;BME280;2247;42.666;23.292;2024-03-22T06:47:07;94561.22;;;19.48;25.17
4469;BME280;2247;42.666;23.292;2024-03-22T06:49:33;94555.63;;;19.23;25.63
4469;BME280;2247;42.666;23.292;2024-03-22T06:52:00;94566.19;;;19.20;25.66
4469;BME280;2247;42.666;23.292;2024-03-22T06:54:26;94570.47;;;19.04;25.70
4469;BME280;2247;42.666;23.292;2024-03-22T06:56:53;94552.34;;;18.71;26.30
4469;BME280;2247;42.666;23.292;2024-03-22T06:59:20;94565.69;;;18.71;26.57
4469;BME280;2247;42.666;23.292;2024-03-22T07:01:47;94571.00;;;18.54;26.60
4469;BME280;2247;42.666;23.292;2024-03-22T07:04:14;94574.19;;;18.30;26.99
4469;BME280;2247;42.666;23.292;2024-03-22T07:06:41;94576.19;;;18.33;27.21
4469;BME280;2247;42.666;23.292;2024-03-22T07:09:07;94575.88;;;18.26;26.96
4469;BME280;2247;42.666;23.292;2024-03-22T07:11:34;94566.94;;;18.22;27.55
4469;BME280;2247;42.666;23.292;2024-03-22T07:14:01;94573.38;;;18.21;28.11
4469;BME280;2247;42.666;23.292;2024-03-22T07:16:30;94578.41;;;18.14;27.10
4469;BME280;2247;42.666;23.292;2024-03-22T07:18:56;94577.63;;;17.96;27.42
4469;BME280;2247;42.666;23.292;2024-03-22T07:21:23;94577.25;;;17.81;27.81
4469;BME280;2247;42.666;23.292;2024-03-22T07:23:49;94581.00;;;17.71;28.17
4469;BME280;2247;42.666;23.292;2024-03-22T07:26:16;94578.19;;;17.67;28.24
4469;BME280;2247;42.666;23.292;2024-03-22T07:28:42;94580.22;;;17.62;28.40
4469;BME280;2247;42.666;23.292;2024-03-22T07:31:08;94577.97;;;17.55;28.47
4469;BME280;2247;42.666;23.292;2024-03-22T07:33:36;94575.88;;;17.44;29.05
4469;BME280;2247;42.666;23.292;2024-03-22T07:36:05;94580.38;;;17.26;29.34
4469;BME280;2247;42.666;23.292;2024-03-22T07:38:31;94570.59;;;17.13;29.85
4469;BME280;2247;42.666;23.292;2024-03-22T07:40:58;94584.47;;;17.01;29.47
4469;BME280;2247;42.666;23.292;2024-03-22T07:43:24;94584.97;;;16.81;29.88
4469;BME280;2247;42.666;23.292;2024-03-22T07:45:51;94569.88;;;16.68;30.79
4469;BME280;2247;42.666;23.292;2024-03-22T07:48:16;94572.38;;;16.64;30.39
4469;BME280;2247;42.666;23.292;2024-03-22T07:50:45;94583.06;;;16.50;30.76
4469;BME280;2247;42.666;23.292;2024-03-22T07:53:11;94586.22;;;16.52;30.76
4469;BME280;2247;42.666;23.292;2024-03-22T07:55:40;94599.06;;;16.37;30.79
4469;BME280;2247;42.666;23.292;2024-03-22T07:58:06;94586.63;;;16.24;30.78
4469;BME280;2247;42.666;23.292;2024-03-22T08:00:33;94594.50;;;16.15;30.88
4469;BME280;2247;42.666;23.292;2024-03-22T08:02:59;94584.28;;;16.08;31.27
4469;BME280;2247;42.666;23.292;2024-03-22T08:05:26;94585.97;;;16.04;31.15
4469;BME280;2247;42.666;23.292;2024-03-22T08:07:53;94583.28;;;16.04;31.18
4469;BME280;2247;42.666;23.292;2024-03-22T08:10:20;94595.50;;;16.05;30.93
4469;BME280;2247;42.666;23.292;2024-03-22T08:12:46;94589.38;;;16.19;31.24
4469;BME280;2247;42.666;23.292;2024-03-22T08:15:13;94587.88;;;16.26;30.75
4469;BME280;2247;42.666;23.292;2024-03-22T08:17:39;94589.75;;;16.26;31.61
4469;BME280;2247;42.666;23.292;2024-03-22T08:20:07;94579.78;;;16.31;30.69
4469;BME280;2247;42.666;23.292;2024-03-22T08:22:33;94581.66;;;16.31;30.85
4469;BME280;2247;42.666;23.292;2024-03-22T08:25:01;94583.09;;;16.14;30.61
4469;BME280;2247;42.666;23.292;2024-03-22T08:27:27;94582.00;;;16.15;30.90
4469;BME280;2247;42.666;23.292;2024-03-22T08:29:54;94575.97;;;16.24;30.56
4469;BME280;2247;42.666;23.292;2024-03-22T08:32:20;94570.66;;;16.24;31.00
4469;BME280;2247;42.666;23.292;2024-03-22T08:34:47;94582.06;;;16.46;30.26
4469;BME280;2247;42.666;23.292;2024-03-22T08:37:13;94541.78;;;16.31;31.24
4469;BME280;2247;42.666;23.292;2024-03-22T08:39:40;94578.50;;;16.65;30.87
4469;BME280;2247;42.666;23.292;2024-03-22T08:42:08;94572.59;;;16.76;30.27
4469;BME280;2247;42.666;23.292;2024-03-22T08:44:35;94579.44;;;16.69;30.17
4469;BME280;2247;42.666;23.292;2024-03-22T08:47:00;94575.91;;;16.60;30.23
4469;BME280;2247;42.666;23.292;2024-03-22T08:49:27;94564.97;;;16.39;29.95
4469;BME280;2247;42.666;23.292;2024-03-22T08:51:53;94587.81;;;16.40;30.18
4469;BME280;2247;42.666;23.292;2024-03-22T08:54:20;94567.00;;;16.20;29.95
4469;BME280;2247;42.666;23.292;2024-03-22T08:56:46;94581.50;;;16.13;30.56
4469;BME280;2247;42.666;23.292;2024-03-22T08:59:14;94581.88;;;16.21;30.38
4469;BME280;2247;42.666;23.292;2024-03-22T09:01:40;94584.38;;;16.17;30.90
4469;BME280;2247;42.666;23.292;2024-03-22T09:04:07;94579.25;;;16.07;30.84
4469;BME280;2247;42.666;23.292;2024-03-22T09:06:33;94577.41;;;16.07;30.37
4469;BME280;2247;42.666;23.292;2024-03-22T09:09:00;94596.97;;;16.11;30.47
4469;BME280;2247;42.666;23.292;2024-03-22T09:11:26;94575.03;;;16.06;30.31
4469;BME280;2247;42.666;23.292;2024-03-22T09:13:53;94567.56;;;16.08;30.13
4469;BME280;2247;42.666;23.292;2024-03-22T09:16:21;94569.78;;;16.14;29.78
4469;BME280;2247;42.666;23.292;2024-03-22T09:18:48;94561.09;;;16.23;30.10
4469;BME280;2247;42.666;23.292;2024-03-22T09:21:13;94558.88;;;16.16;30.08
4469;BME280;2247;42.666;23.292;2024-03-22T09:23:40;94583.94;;;16.24;29.67
4469;BME280;2247;42.666;23.292;2024-03-22T09:26:06;94562.78;;;16.19;30.01
4469;BME280;2247;42.666;23.292;2024-03-22T09:28:33;94560.66;;;16.07;29.86
4469;BME280;2247;42.666;23.292;2024-03-22T09:31:03;94556.97;;;15.94;30.71
4469;BME280;2247;42.666;23.292;2024-03-22T09:33:32;94547.94;;;15.82;30.65
4469;BME280;2247;42.666;23.292;2024-03-22T09:35:58;94551.38;;;15.82;30.78
4469;BME280;2247;42.666;23.292;2024-03-22T09:38:26;94554.59;;;15.93;31.01
4469;BME280;2247;42.666;23.292;2024-03-22T09:40:52;94549.88;;;15.90;30.19
4469;BME280;2247;42.666;23.292;2024-03-22T09:43:20;94540.63;;;15.87;30.57
4469;BME280;2247;42.666;23.292;2024-03-22T09:45:47;94551.16;;;15.92;30.81
4469;BME280;2247;42.666;23.292;2024-03-22T09:48:14;94553.00;;;15.92;31.02
4469;BME280;2247;42.666;23.292;2024-03-22T09:50:41;94548.50;;;15.92;30.83
4469;BME280;2247;42.666;23.292;2024-03-22T09:53:09;94546.84;;;15.83;30.62
4469;BME280;2247;42.666;23.292;2024-03-22T09:55:36;94561.63;;;15.75;30.64
4469;BME280;2247;42.666;23.292;2024-03-22T09:58:05;94557.97;;;15.71;30.85
4469;BME280;2247;42.666;23.292;2024-03-22T10:00:31;94543.63;;;15.45;30.84
4469;BME280;2247;42.666;23.292;2024-03-22T10:02:58;94547.97;;;15.41;31.41
4469;BME280;2247;42.666;23.292;2024-03-22T10:05:25;94551.41;;;15.41;31.24
4469;BME280;2247;42.666;23.292;2024-03-22T10:07:54;94544.13;;;15.47;31.81
4469;BME280;2247;42.666;23.292;2024-03-22T10:10:20;94540.41;;;15.48;31.02
4469;BME280;2247;42.666;23.292;2024-03-22T10:12:47;94541.88;;;15.54;31.50
4469;BME280;2247;42.666;23.292;2024-03-22T10:15:13;94537.13;;;15.64;31.62
4469;BME280;2247;42.666;23.292;2024-03-22T10:17:41;94540.25;;;15.80;30.76
4469;BME280;2247;42.666;23.292;2024-03-22T10:20:07;94547.28;;;15.76;30.75
4469;BME280;2247;42.666;23.292;2024-03-22T10:22:41;94535.34;;;15.73;30.79
4469;BME280;2247;42.666;23.292;2024-03-22T10:25:09;94529.84;;;15.70;31.31
4469;BME280;2247;42.666;23.292;2024-03-22T10:27:38;94534.75;;;15.76;31.43
4469;BME280;2247;42.666;23.292;2024-03-22T10:30:08;94525.28;;;15.84;31.97
4469;BME280;2247;42.666;23.292;2024-03-22T10:32:36;94517.38;;;15.93;30.80
4469;BME280;2247;42.666;23.292;2024-03-22T10:35:03;94520.34;;;15.91;30.52
4469;BME280;2247;42.666;23.292;2024-03-22T10:37:32;94509.69;;;15.91;30.59
4469;BME280;2247;42.666;23.292;2024-03-22T10:39:58;94506.47;;;15.94;31.14
4469;BME280;2247;42.666;23.292;2024-03-22T10:42:29;94507.31;;;16.03;29.93
4469;BME280;2247;42.666;23.292;2024-03-22T10:44:54;94524.94;;;15.99;30.52
4469;BME280;2247;42.666;23.292;2024-03-22T10:47:24;94503.00;;;15.94;30.23
4469;BME280;2247;42.666;23.292;2024-03-22T10:49:53;94510.44;;;15.83;30.18
4469;BME280;2247;42.666;23.292;2024-03-22T10:52:25;94482.22;;;15.73;30.16
4469;BME280;2247;42.666;23.292;2024-03-22T10:54:52;94484.16;;;15.82;30.44
4469;BME280;2247;42.666;23.292;2024-03-22T10:57:20;94505.97;;;15.92;30.17
4469;BME280;2247;42.666;23.292;2024-03-22T10:59:47;94502.63;;;15.87;30.09
4469;BME280;2247;42.666;23.292;2024-03-22T11:02:17;94491.84;;;15.83;30.18
4469;BME280;2247;42.666;23.292;2024-03-22T11:04:43;94478.44;;;15.88;30.61
4469;BME280;2247;42.666;23.292;2024-03-22T11:07:20;94476.84;;;15.87;30.27
4469;BME280;2247;42.666;23.292;2024-03-22T11:09:52;94481.59;;;15.90;30.66
4469;BME280;2247;42.666;23.292;2024-03-22T11:12:19;94483.25;;;15.86;30.38
4469;BME280;2247;42.666;23.292;2024-03-22T11:14:47;94482.97;;;15.88;30.26
4469;BME280;2247;42.666;23.292;2024-03-22T11:17:15;94475.78;;;15.88;30.09
4469;BME280;2247;42.666;23.292;2024-03-22T11:19:41;94466.22;;;15.87;30.12
4469;BME280;2247;42.666;23.292;2024-03-22T11:22:08;94486.06;;;16.03;30.12
4469;BME280;2247;42.666;23.292;2024-03-22T11:24:37;94471.28;;;15.97;30.29
4469;BME280;2247;42.666;23.292;2024-03-22T11:27:04;94457.47;;;15.87;29.44
4469;BME280;2247;42.666;23.292;2024-03-22T11:29:30;94455.97;;;15.94;29.67
4469;BME280;2247;42.666;23.292;2024-03-22T11:31:58;94456.47;;;16.05;30.61
4469;BME280;2247;42.666;23.292;2024-03-22T11:34:24;94456.75;;;16.17;30.23
4469;BME280;2247;42.666;23.292;2024-03-22T11:36:51;94462.72;;;16.23;29.98
4469;BME280;2247;42.666;23.292;2024-03-22T11:39:19;94463.44;;;16.14;29.72
4469;BME280;2247;42.666;23.292;2024-03-22T11:41:46;94457.41;;;16.00;29.29
4469;BME280;2247;42.666;23.292;2024-03-22T11:44:14;94460.63;;;16.11;29.36
4469;BME280;2247;42.666;23.292;2024-03-22T11:46:43;94451.50;;;16.03;29.86
4469;BME280;2247;42.666;23.292;2024-03-22T11:49:11;94446.63;;;16.05;29.31
4469;BME280;2247;42.666;23.292;2024-03-22T11:51:38;94434.56;;;15.99;29.00
4469;BME280;2247;42.666;23.292;2024-03-22T11:54:05;94447.63;;;16.09;29.18
4469;BME280;2247;42.666;23.292;2024-03-22T11:56:35;94427.66;;;16.21;28.99
4469;BME280;2247;42.666;23.292;2024-03-22T11:59:01;94427.88;;;16.33;29.41
4469;BME280;2247;42.666;23.292;2024-03-22T12:01:28;94419.00;;;16.46;29.16
4469;BME280;2247;42.666;23.292;2024-03-22T12:03:55;94424.09;;;16.56;28.55
4469;BME280;2247;42.666;23.292;2024-03-22T12:06:24;94409.69;;;16.57;28.60
4469;BME280;2247;42.666;23.292;2024-03-22T12:08:50;94391.81;;;16.49;28.36
4469;BME280;2247;42.666;23.292;2024-03-22T12:11:17;94416.25;;;16.51;29.02
4469;BME280;2247;42.666;23.292;2024-03-22T12:13:43;94420.00;;;16.50;28.74
4469;BME280;2247;42.666;23.292;2024-03-22T12:16:10;94411.19;;;16.41;28.73
4469;BME280;2247;42.666;23.292;2024-03-22T12:18:36;94413.25;;;16.44;29.22
4469;BME280;2247;42.666;23.292;2024-03-22T12:21:03;94415.91;;;16.44;29.12
4469;BME280;2247;42.666;23.292;2024-03-22T12:23:31;94418.56;;;16.44;29.05
4469;BME280;2247;42.666;23.292;2024-03-22T12:25:58;94416.94;;;16.34;28.91
4469;BME280;2247;42.666;23.292;2024-03-22T12:28:24;94406.59;;;16.33;28.74
4469;BME280;2247;42.666;23.292;2024-03-22T12:30:50;94397.31;;;16.22;28.31
4469;BME280;2247;42.666;23.292;2024-03-22T12:33:16;94396.84;;;16.20;28.69
4469;BME280;2247;42.666;23.292;2024-03-22T12:35:43;94395.59;;;16.17;28.84
4469;BME280;2247;42.666;23.292;2024-03-22T12:38:09;94396.25;;;16.23;28.61
4469;BME280;2247;42.666;23.292;2024-03-22T12:40:40;94389.84;;;16.24;28.46
4469;BME280;2247;42.666;23.292;2024-03-22T12:43:09;94391.72;;;16.23;28.83
4469;BME280;2247;42.666;23.292;2024-03-22T12:45:36;94393.31;;;16.33;28.32
4469;BME280;2247;42.666;23.292;2024-03-22T12:48:02;94371.53;;;16.22;28.29
4469;BME280;2247;42.666;23.292;2024-03-22T12:50:29;94389.31;;;16.44;28.56
4469;BME280;2247;42.666;23.292;2024-03-22T12:52:56;94389.00;;;16.45;28.14
4469;BME280;2247;42.666;23.292;2024-03-22T12:55:23;94391.81;;;16.49;28.18
4469;BME280;2247;42.666;23.292;2024-03-22T12:57:50;94381.50;;;16.56;27.65
4469;BME280;2247;42.666;23.292;2024-03-22T13:00:17;94372.94;;;16.59;28.02
4469;BME280;2247;42.666;23.292;2024-03-22T13:02:44;94335.13;;;16.31;27.60
4469;BME280;2247;42.666;23.292;2024-03-22T13:05:12;94376.88;;;16.62;28.12
4469;BME280;2247;42.666;23.292;2024-03-22T13:07:38;94368.44;;;16.68;27.79